Slide Mountain Weather observations

Data are for 10 minute period ending at time listed.
 Day   Time   Solar   Ave.   Ave.  Ave.  Vector  Max.    Baro.  
  of    of     Rad.   Air    Rel.  Wind   Wind   Wind   Press.  
Year   Day            Temp.  Hum.  Speed  Dir.   Gust           
2016   (PST)  Kw/m2    F      %     mph   deg.    mph     mb.   
-----------------------------------------------------------------
  41    0:30   0.00   39.2    33   27.6   235     34.9    720.4 
  41    0:40   0.00   39.3    32   30.7   240     37.0    720.3 
  41    0:50   0.00   38.8    34   32.1   241     38.8    720.3 
  41    1:00   0.00   38.5    33   33.7   242     39.4    720.2 
  41    1:10   0.00   38.5    30   33.5   241     40.2    720.2 
  41    1:20   0.00   38.4    27   36.5   242     42.2    720.1 
  41    1:30   0.00   38.1    26   36.9   242     43.9    720.1 
  41    1:40   0.00   37.8    26   37.2   245     47.6    720.0 
  41    1:50   0.00   37.6    26   38.2   247     44.0    720.0 
  41    2:00   0.00   37.5    25   36.1   246     45.9    720.0 
  41    2:10   0.00   37.3    24   34.7   247     41.8    719.9 
  41    2:20   0.00   37.0    24   34.5   242     43.1    719.8 
  41    2:30   0.00   36.8    24   36.5   247     47.5    719.7 
  41    2:40   0.00   37.0    24   37.4   247     44.2    719.6 
  41    2:50   0.00   36.9    24   39.3   248     45.4    719.5 
  41    3:00   0.00   36.9    24   38.7   253     47.9    719.5 
  41    3:10   0.00   36.9    24   39.9   258     50.1    719.4 
  41    3:20   0.00   37.0    24   40.5   257     51.1    719.4 
  41    3:30   0.00   36.8    25   39.6   256     48.2    719.4 
  41    3:40   0.00   36.7    25   40.2   252     50.9    719.2 
  41    3:50   0.00   36.4    25   41.0   249     51.7    719.2 
  41    4:00   0.00   36.3    25   41.7   251     51.6    719.1 
  41    4:10   0.00   36.0    26   38.6   250     47.8    719.2 
  41    4:20   0.00   35.8    26   34.7   250     44.7    719.4 
  41    4:30   0.00   35.7    27   32.5   251     42.5    719.5 
  41    4:40   0.00   35.2    28   29.6   256     36.7    719.4 
  41    4:50   0.00   35.1    28   31.6   256     37.7    719.4 
  41    5:00   0.00   35.3    28   34.2   251     43.8    719.3 
  41    5:10   0.00   35.5    28   38.0   250     48.0    719.2 
  41    5:20   0.00   35.3    28   35.5   257     41.5    719.3 
  41    5:30   0.00   35.3    28   36.2   263     42.0    719.4 
  41    5:40   0.00   35.6    27   36.3   263     42.0    719.4 
  41    5:50   0.00   36.3    25   36.4   263     42.2    719.4 
  41    6:00   0.00   36.4    24   34.6   264     43.6    719.5 
  41    6:10   0.00   36.3    24   30.6   264     36.1    719.7 
  41    6:20   0.00   36.0    24   27.2   266     32.1    719.8 
  41    6:30   0.00   36.2    23   23.3   274     27.6    720.1 
  41    6:40   0.00   36.9    22   24.0   273     27.7    720.3 
  41    6:50   0.00   36.9    22   24.0   267     28.2    720.3 
  41    7:00   0.01   36.6    23   27.7   268     33.5    720.2 
  41    7:10   0.01   36.9    22   31.9   267     37.8    720.1 
  41    7:20   0.03   37.1    22   31.8   266     36.8    720.0 
  41    7:30   0.05   37.2    23   31.2   265     35.5    720.1 
  41    7:40   0.08   37.4    22   28.1   266     34.7    720.3 
  41    7:50   0.11   37.9    22   21.7   267     25.7    720.7 
  41    8:00   0.14   38.1    22   19.4   267     23.6    720.9 
  41    8:10   0.17   38.0    24   19.0   264     25.5    721.0 
  41    8:20   0.19   38.2    25   19.0   262     23.2    721.1 
  41    8:30   0.22   39.0    23   16.8   263     23.0    721.2 
  41    8:40   0.24   39.9    23   11.7   256     15.9    721.4 
  41    8:50   0.27   40.4    23    9.8   258     14.2    721.5 
  41    9:00   0.29   41.0    21   10.3   269     13.1    721.6 
  41    9:10   0.31   41.9    19    9.0   271     11.8    721.8 
  41    9:20   0.34   43.0    19    5.4   278      8.8    721.9 
  41    9:30   0.36   43.8    19    3.0   276      6.7    722.0 
  41    9:40   0.38   44.6    17    0.7   260      2.8    722.0 
  41    9:50   0.40   46.0    14    0.1   272      1.8    722.1 
  41   10:00   0.42   45.8    18    1.2   287      2.6    722.1 
  41   10:10   0.44   45.0    18    3.0   283      6.5    722.2 
  41   10:20   0.46   45.4    17    3.2   272      6.3    722.2 
  41   10:30   0.47   45.7    18    2.9   269      7.0    722.2 
  41   10:40   0.49   45.9    17    5.6   262      9.3    722.2 
  41   10:50   0.47   45.5    19    6.5   264      8.4    722.2 
  41   11:00   0.52   45.1    19    6.1   269      7.8    722.2 
  41   11:10   0.54   45.3    20    7.7   268     10.4    722.1 
  41   11:20   0.54   45.6    20    7.6   258     11.6    722.0 
  41   11:30   0.55   45.8    21    8.5   245     12.1    722.0 
  41   11:40   0.56   45.6    21   10.7   256     17.7    722.0 
  41   11:50   0.57   46.1    21    9.2   255     13.7    721.9 
  41   12:00   0.58   46.1    21    9.4   259     14.6    721.9 
  41   12:10   0.52   46.1    21    8.6   263     11.8    721.8 
  41   12:20   0.47   45.8    21    8.9   248     14.4    721.7 
  41   12:30   0.58   46.5    20    7.3   250     11.1    721.6 
  41   12:40   0.44   45.6    22    8.4   248     13.3    721.5 
  41   12:50   0.58   46.3    21    6.3   247     10.0    721.4 
  41   13:00   0.47   46.0    22    7.5   242      9.8    721.3 
  41   13:10   0.46   45.6    23    7.2   250     10.7    721.3 
  41   13:20   0.34   44.4    24    9.2   250     12.5    721.3 
  41   13:30   0.57   45.2    24    9.6   251     13.5    721.3 
  41   13:40   0.40   45.2    25    7.2   254     10.3    721.3 
  41   13:50   0.51   45.8    24    6.2   246      9.3    721.3 
  41   14:00   0.30   45.1    24    5.7   256      9.0    721.3 
  41   14:10   0.17   43.2    25    5.8   259      8.9    721.2 
  41   14:20   0.21   43.3    25    1.4   269      5.5    721.2 
  41   14:30   0.23   43.6    24    0.3   294      1.4    721.1 
  41   14:40   0.23   44.4    24    0.1   339      0.1    721.0 
  41   14:50   0.28   45.7    23    0.1   313      0.6    721.0 
  41   15:00   0.26   45.5    23    1.2   262      4.6    721.0 
  41   15:10   0.22   44.0    22    5.2   272      6.3    721.0 
  41   15:20   0.20   43.9    19    5.7   274      6.9    721.0 
  41   15:30   0.28   44.0    22    8.1   270      9.8    721.0 
  41   15:40   0.21   44.3    22    7.0   268      9.8    721.0 
  41   15:50   0.12   42.9    23    5.5   264      7.7    721.0 
  41   16:00   0.17   42.9    23    8.2   248     10.7    721.0 
  41   16:10   0.17   44.3    18    8.2   242     10.4    721.0 
  41   16:20   0.14   44.6    17    5.3   232      8.4    721.0 
  41   16:30   0.16   45.8    16    6.0   232      9.6    721.0 
  41   16:40   0.12   45.0    14    8.2   242     10.8    721.0 
  41   16:50   0.07   44.1    13    8.9   239     11.1    721.1 
  41   17:00   0.02   42.7    14    5.6   240      8.1    721.1 
  41   17:10   0.02   42.3    14    5.2   234      6.7    721.1 
  41   17:20   0.01   42.1    14    5.0   234      6.7    721.1 
  41   17:30   0.00   41.8    14    6.6   231      9.3    721.0 
  41   17:40   0.00   41.9    13    7.9   225      9.3    721.0 
  41   17:50   0.00   41.9    14    7.3   212      9.3    721.0 
  41   18:00   0.00   41.8    13    6.1   228      8.9    721.0 
  41   18:10   0.00   41.8    13    6.3   229      7.7    721.0 
  41   18:20   0.00   41.6    12    5.4   227      7.5    721.0 
  41   18:30   0.00   41.5    12    5.7   228     10.0    721.0 
  41   18:40   0.00   40.9    14    9.5   234     10.9    721.0 
  41   18:50   0.00   40.5    15    4.9   224      8.2    721.0 
  41   19:00   0.00   40.4    16    5.7   216      7.8    720.9 
  41   19:10   0.00   40.6    17    4.4   165      5.6    720.9 
  41   19:20   0.00   40.4    19    5.0   158      7.8    720.9 
  41   19:30   0.00   40.7    19    8.4   165     10.5    720.9 
  41   19:40   0.00   40.9    20    8.0   184      9.4    720.9 
  41   19:50   0.00   40.9    20    8.5   171     10.6    720.9 
  41   20:00   0.00   41.1    20    8.5   163     10.2    720.9 
  41   20:10   0.00   40.5    21    7.7   148     10.7    720.8 
  41   20:20   0.00   40.1    21    7.6   140     10.8    720.7 
  41   20:30   0.00   40.0    22    6.6   141      8.4    720.7 
  41   20:40   0.00   39.6    22    8.6   147      9.5    720.7 
  41   20:50   0.00   39.6    22    7.3   146      8.7    720.7 
  41   21:00   0.00   39.8    22    9.2   150     10.1    720.7 
  41   21:10   0.00   40.2    21    8.9   156     10.6    720.7 
  41   21:20   0.00   40.7    20   10.4   163     12.4    720.7 
  41   21:30   0.00   40.6    20    9.2   158     11.0    720.7 
  41   21:40   0.00   40.1    23    9.9   150     13.1    720.6 
  41   21:50   0.00   39.3    26   11.1   148     13.7    720.5 
  41   22:00   0.00   39.6    25   10.5   154     12.4    720.5 
  41   22:10   0.00   39.2    27   11.2   148     12.7    720.5 
  41   22:20   0.00   39.1    26   11.1   150     12.5    720.5 
  41   22:30   0.00   40.2    21   11.0   164     11.8    720.5 
  41   22:40   0.00   40.3    21   10.2   173     11.8    720.5 
  41   22:50   0.00   40.3    24   10.2   185     13.3    720.5 
  41   23:00   0.00   40.6    25   11.7   185     13.3    720.4 
  41   23:10   0.00   40.4    26   10.4   195     12.0    720.4 
  41   23:20   0.00   40.1    24    8.6   193     10.5    720.4 
  41   23:30   0.00   40.0    23    8.6   207     10.7    720.3 
  41   23:40   0.00   39.7    23    9.3   187     12.1    720.3 
  41   23:50   0.00   39.5    22    8.9   184     12.4    720.2 
  42    0:00   0.00   39.7    21    6.5   198      9.5    720.2 
  42    0:10   0.00   39.6    21    8.6   215     10.9    720.1 
  42    0:20   0.00   39.9    21   11.3   233     14.4    720.0 

Return to Slide Mountain graphs page.


Western Regional Climate Center,wrcc@dri.edu